Time;durP1;ratioP1;P1;durP2;ratioP2;P2;SDS_P1;SDS_P2;PMS_P1;PMS_P2;Temp;Humidity;BMP_temperature;BMP_pressure;BME280_temperature;BME280_humidity;BME280_pressure;Samples;Min_cycle;Max_cycle;Signal;HPM_P1;HPM_P2
2020/12/10 00:00:16;;;;;;;15.07;10.00;;;3.00;99.90;;;;;;4954872;29;20191;-79
2020/12/10 00:02:43;;;;;;;15.77;11.27;;;3.20;99.90;;;;;;4954388;29;20428;-79
2020/12/10 00:05:10;;;;;;;13.83;9.63;;;3.20;99.90;;;;;;4955004;29;20420;-80
2020/12/10 00:07:39;;;;;;;13.33;8.83;;;3.30;99.90;;;;;;4946144;29;20475;-79
2020/12/10 00:10:09;;;;;;;20.27;12.93;;;3.50;99.90;;;;;;4941403;29;20412;-79
2020/12/10 00:12:42;;;;;;;14.33;10.33;;;3.70;99.90;;;;;;4947090;29;20519;-78
2020/12/10 00:15:12;;;;;;;17.70;11.77;;;3.70;99.90;;;;;;4961111;28;20778;-79
2020/12/10 00:17:38;;;;;;;16.90;10.90;;;3.20;99.90;;;;;;4997653;28;20404;-79
2020/12/10 00:20:06;;;;;;;25.53;14.20;;;2.80;99.90;;;;;;4998693;28;20550;-79
2020/12/10 00:22:34;;;;;;;17.87;11.80;;;2.50;99.90;;;;;;4966451;28;20554;-79
2020/12/10 00:25:00;;;;;;;20.60;11.67;;;2.50;99.90;;;;;;4950452;28;20405;-79
2020/12/10 00:27:27;;;;;;;17.77;12.03;;;2.40;99.90;;;;;;4959506;28;20585;-78
2020/12/10 00:29:57;;;;;;;13.90;9.57;;;2.60;99.90;;;;;;4975909;28;20392;-79
2020/12/10 00:32:24;;;;;;;16.37;10.37;;;2.50;99.90;;;;;;4960762;28;20466;-79
2020/12/10 00:34:50;;;;;;;18.90;9.30;;;2.50;99.90;;;;;;4995120;28;20431;-79
2020/12/10 00:37:17;;;;;;;21.53;10.87;;;2.60;99.90;;;;;;4995326;28;20384;-79
2020/12/10 00:39:51;;;;;;;14.30;10.10;;;2.60;99.90;;;;;;4963926;28;20372;-79
2020/12/10 00:42:16;;;;;;;18.10;9.70;;;2.60;99.90;;;;;;4995395;28;20454;-79
2020/12/10 00:44:42;;;;;;;14.63;8.37;;;2.40;99.90;;;;;;4995856;28;20405;-78
2020/12/10 00:47:08;;;;;;;15.30;10.00;;;2.60;99.90;;;;;;5000630;28;20221;-79
2020/12/10 00:49:34;;;;;;;19.13;11.57;;;2.50;99.90;;;;;;4981420;28;20876;-79
2020/12/10 00:52:01;;;;;;;14.10;9.03;;;2.70;99.90;;;;;;4965345;28;20191;-79
2020/12/10 00:54:51;;;;;;;16.23;8.17;;;2.70;99.90;;;;;;4964319;28;20392;-79
2020/12/10 00:57:20;;;;;;;14.53;7.90;;;2.80;99.90;;;;;;4931128;28;20419;-79
2020/12/10 00:59:45;;;;;;;15.30;9.20;;;3.00;99.90;;;;;;4966285;28;20456;-79
2020/12/10 01:02:14;;;;;;;15.77;9.60;;;3.00;99.90;;;;;;4966825;28;20412;-79
2020/12/10 01:04:44;;;;;;;14.20;10.20;;;2.90;99.90;;;;;;4942803;29;20404;-79
2020/12/10 01:07:11;;;;;;;13.60;8.23;;;2.80;99.90;;;;;;4924075;29;20427;-79
2020/12/10 01:09:37;;;;;;;10.87;8.90;;;2.70;99.90;;;;;;4908016;29;20482;-78
2020/12/10 01:12:06;;;;;;;14.53;8.50;;;2.80;99.90;;;;;;4895306;29;20447;-78
2020/12/10 01:14:32;;;;;;;15.97;8.77;;;2.60;99.90;;;;;;4923905;29;20403;-79
2020/12/10 01:17:02;;;;;;;9.13;6.90;;;2.60;99.90;;;;;;4924045;29;20398;-78
2020/12/10 01:19:28;;;;;;;14.10;8.10;;;2.70;99.90;;;;;;4924918;29;20414;-79
2020/12/10 01:21:56;;;;;;;11.40;9.00;;;2.70;99.90;;;;;;4927346;29;20412;-79
2020/12/10 01:24:22;;;;;;;11.60;8.17;;;2.70;99.90;;;;;;4944207;29;20262;-79
2020/12/10 01:26:48;;;;;;;16.27;8.27;;;2.80;99.90;;;;;;4944640;29;20408;-78
2020/12/10 01:29:14;;;;;;;16.03;8.03;;;2.90;99.90;;;;;;4945428;29;20375;-79
2020/12/10 01:31:41;;;;;;;14.17;9.50;;;2.70;99.90;;;;;;4949970;29;20184;-79
2020/12/10 01:34:07;;;;;;;16.30;10.27;;;2.90;99.90;;;;;;4954531;29;20197;-78
2020/12/10 01:36:34;;;;;;;10.43;7.20;;;2.80;99.90;;;;;;4995407;23;20516;-79
2020/12/10 01:38:59;;;;;;;17.60;9.07;;;3.10;99.90;;;;;;5026389;28;20203;-78
2020/12/10 01:41:30;;;;;;;24.03;9.13;;;2.70;99.90;;;;;;5025234;28;20411;-78
2020/12/10 01:44:05;;;;;;;11.00;8.43;;;2.60;99.90;;;;;;5050133;28;20226;-78
2020/12/10 01:46:34;;;;;;;11.90;7.63;;;2.60;99.90;;;;;;5046516;28;20403;-78
2020/12/10 01:49:03;;;;;;;17.90;8.47;;;2.60;99.90;;;;;;5061362;28;20818;-78
2020/12/10 01:51:31;;;;;;;10.67;7.30;;;2.60;99.90;;;;;;5043727;28;20506;-79
2020/12/10 01:54:01;;;;;;;10.30;6.70;;;2.90;99.90;;;;;;5011210;28;20442;-78
2020/12/10 01:56:29;;;;;;;13.20;8.63;;;3.20;99.90;;;;;;5000823;28;20384;-78
2020/12/10 01:59:01;;;;;;;14.93;6.70;;;3.30;99.90;;;;;;5000815;28;20380;-79
2020/12/10 02:01:28;;;;;;;13.43;7.50;;;3.40;99.90;;;;;;4965958;28;20421;-79
2020/12/10 02:03:56;;;;;;;14.47;8.80;;;3.40;99.90;;;;;;4966658;28;20964;-79
2020/12/10 02:06:25;;;;;;;11.57;8.30;;;2.80;99.90;;;;;;4966847;28;20401;-79
2020/12/10 02:08:53;;;;;;;12.73;5.83;;;3.10;99.90;;;;;;4966544;28;20562;-81
2020/12/10 02:11:24;;;;;;;10.97;7.57;;;3.00;99.90;;;;;;4982591;28;20502;-80
2020/12/10 02:13:51;;;;;;;12.20;7.33;;;2.60;99.90;;;;;;4965972;28;20820;-79
2020/12/10 02:16:19;;;;;;;9.70;6.50;;;2.70;99.90;;;;;;4981835;28;20406;-79
2020/12/10 02:18:54;;;;;;;14.57;9.43;;;2.50;99.90;;;;;;4964778;28;20973;-79
2020/12/10 02:21:20;;;;;;;11.30;7.20;;;2.70;99.90;;;;;;4964252;28;20938;-79
2020/12/10 02:23:53;;;;;;;10.80;7.87;;;2.50;99.90;;;;;;4948839;28;20466;-79
2020/12/10 02:26:22;;;;;;;13.93;8.10;;;2.60;99.90;;;;;;4983534;28;20445;-79
2020/12/10 02:29:02;;;;;;;11.37;7.90;;;2.80;99.90;;;;;;4987578;28;20564;-79
2020/12/10 02:31:32;;;;;;;14.43;7.87;;;2.80;99.90;;;;;;5001029;28;20462;-79
2020/12/10 02:34:05;;;;;;;22.00;8.03;;;2.60;99.90;;;;;;5012270;28;20417;-79
2020/12/10 02:36:33;;;;;;;19.67;8.87;;;2.50;99.90;;;;;;5000769;28;20484;-79
2020/12/10 02:39:03;;;;;;;25.70;11.13;;;2.60;99.90;;;;;;5017501;28;20929;-79
2020/12/10 02:41:30;;;;;;;25.63;9.87;;;2.60;99.90;;;;;;4987650;28;20383;-79
2020/12/10 02:43:56;;;;;;;21.80;10.83;;;2.80;99.90;;;;;;4999483;28;20392;-79
2020/12/10 02:46:21;;;;;;;15.27;11.90;;;3.00;99.90;;;;;;4975976;28;20392;-79
2020/12/10 02:48:51;;;;;;;18.83;11.47;;;2.80;99.90;;;;;;4983849;28;20281;-79
2020/12/10 02:51:24;;;;;;;20.40;10.80;;;2.90;99.90;;;;;;5000596;28;20423;-79
2020/12/10 02:53:50;;;;;;;21.97;11.67;;;3.10;99.90;;;;;;4994593;28;20445;-79
2020/12/10 02:56:19;;;;;;;21.37;10.67;;;3.10;99.90;;;;;;4996413;28;20377;-79
2020/12/10 02:58:45;;;;;;;19.20;8.37;;;3.10;99.90;;;;;;4978930;28;20427;-79
2020/12/10 03:01:13;;;;;;;18.13;11.63;;;3.30;99.90;;;;;;4996885;28;20385;-79
2020/12/10 03:03:42;;;;;;;17.03;9.37;;;3.10;99.90;;;;;;4976377;28;20472;-79
2020/12/10 03:06:09;;;;;;;34.33;11.30;;;2.90;99.90;;;;;;4963196;28;20423;-79
2020/12/10 03:08:40;;;;;;;20.30;10.17;;;2.60;99.90;;;;;;4980796;28;20238;-79
2020/12/10 03:11:06;;;;;;;24.83;11.30;;;2.30;99.90;;;;;;4949981;28;20405;-79
2020/12/10 03:13:33;;;;;;;24.00;10.93;;;2.60;99.90;;;;;;4930635;29;20401;-79
2020/12/10 03:16:00;;;;;;;26.67;10.33;;;2.80;99.90;;;;;;4965657;28;20186;-79
2020/12/10 03:18:27;;;;;;;25.43;8.10;;;2.50;99.90;;;;;;4928120;29;20408;-79
2020/12/10 03:20:55;;;;;;;21.00;10.47;;;2.40;99.90;;;;;;4926175;29;20403;-79
2020/12/10 03:23:22;;;;;;;32.37;10.60;;;2.70;99.90;;;;;;4909633;29;20830;-79
2020/12/10 03:25:48;;;;;;;24.90;10.27;;;2.70;99.90;;;;;;4910053;29;20776;-79
2020/12/10 03:28:15;;;;;;;22.07;10.53;;;2.60;99.90;;;;;;4941457;29;20814;-79
2020/12/10 03:30:42;;;;;;;27.33;11.37;;;2.70;99.90;;;;;;4907079;29;20416;-79
2020/12/10 03:33:08;;;;;;;30.20;14.90;;;2.80;99.90;;;;;;4873928;29;20906;-79
2020/12/10 03:35:34;;;;;;;24.90;13.03;;;2.90;99.90;;;;;;4904005;29;20532;-79
2020/12/10 03:38:02;;;;;;;22.60;12.40;;;3.00;99.90;;;;;;4902583;29;21073;-79
2020/12/10 03:40:28;;;;;;;26.10;12.93;;;3.10;99.90;;;;;;4887385;29;20426;-79
2020/12/10 03:42:54;;;;;;;29.03;12.87;;;2.80;99.90;;;;;;4903432;29;20389;-79
2020/12/10 03:45:20;;;;;;;23.03;10.20;;;2.80;99.90;;;;;;4919008;29;20188;-79
2020/12/10 03:47:48;;;;;;;26.20;11.13;;;2.80;99.90;;;;;;4922180;29;20515;-79
2020/12/10 03:50:17;;;;;;;27.77;12.03;;;2.70;99.90;;;;;;4926516;29;20392;-79
2020/12/10 03:52:48;;;;;;;24.70;11.63;;;2.60;99.90;;;;;;4941381;29;20392;-79
2020/12/10 03:55:37;;;;;;;18.77;12.23;;;2.50;99.90;;;;;;4941563;29;20404;-79
2020/12/10 03:58:04;;;;;;;24.50;11.33;;;2.40;99.90;;;;;;4940865;29;20436;-79
2020/12/10 04:00:30;;;;;;;29.00;10.13;;;2.20;99.90;;;;;;4937965;28;20426;-79
2020/12/10 04:02:58;;;;;;;27.63;9.90;;;2.40;99.90;;;;;;4985569;28;20427;-79
2020/12/10 04:05:23;;;;;;;28.97;12.43;;;2.70;99.90;;;;;;5001264;28;20456;-79
2020/12/10 04:07:51;;;;;;;31.40;12.77;;;2.50;99.90;;;;;;5004293;28;20945;-79
2020/12/10 04:10:19;;;;;;;33.43;12.10;;;2.80;99.90;;;;;;5021185;28;20181;-79
2020/12/10 04:13:07;;;;;;;30.40;10.50;;;3.10;99.90;;;;;;5020976;28;20413;-79
2020/12/10 04:15:33;;;;;;;34.23;11.97;;;3.10;99.90;;;;;;5000544;28;20853;-79
2020/12/10 04:17:59;;;;;;;38.30;13.57;;;3.20;99.90;;;;;;5016733;28;20379;-79
2020/12/10 04:20:24;;;;;;;35.47;15.27;;;3.30;99.90;;;;;;5020631;28;20407;-79
2020/12/10 04:22:50;;;;;;;18.77;11.13;;;3.40;99.90;;;;;;4969505;28;20293;-79
2020/12/10 04:25:38;;;;;;;29.80;12.60;;;3.20;99.90;;;;;;4987227;28;20198;-79
2020/12/10 04:28:04;;;;;;;23.90;12.37;;;3.20;99.90;;;;;;4954472;28;20481;-80
2020/12/10 04:30:30;;;;;;;30.47;14.63;;;3.30;99.90;;;;;;4966500;29;20413;-79
2020/12/10 04:32:55;;;;;;;23.50;12.13;;;3.40;99.90;;;;;;4951431;29;20187;-79
2020/12/10 04:35:23;;;;;;;29.27;12.10;;;2.90;99.90;;;;;;4935546;29;20290;-79
2020/12/10 04:37:51;;;;;;;31.33;13.90;;;3.10;99.90;;;;;;4930983;29;20677;-79
2020/12/10 04:40:17;;;;;;;32.20;14.07;;;3.30;99.90;;;;;;4945714;29;20412;-79
2020/12/10 04:42:46;;;;;;;30.70;11.13;;;3.40;99.90;;;;;;4945377;29;20218;-79
2020/12/10 04:45:17;;;;;;;30.63;11.30;;;3.50;99.90;;;;;;4925245;29;20269;-79
2020/12/10 04:47:53;;;;;;;27.03;11.53;;;3.50;99.90;;;;;;4886968;29;20464;-79
2020/12/10 04:50:23;;;;;;;30.10;13.33;;;3.60;99.90;;;;;;4904380;29;20418;-79
2020/12/10 04:52:52;;;;;;;26.70;10.30;;;3.70;99.90;;;;;;4889519;29;20409;-79
2020/12/10 04:55:18;;;;;;;23.97;9.83;;;3.60;99.90;;;;;;4906291;29;20385;-79
2020/12/10 04:57:46;;;;;;;29.50;13.20;;;3.60;99.90;;;;;;4892769;29;20430;-79
2020/12/10 05:00:15;;;;;;;27.10;11.03;;;3.40;99.90;;;;;;4870486;29;20394;-79
2020/12/10 05:02:45;;;;;;;20.83;11.20;;;3.60;99.90;;;;;;4915843;29;20427;-79
2020/12/10 05:05:28;;;;;;;25.30;11.80;;;3.70;99.90;;;;;;4923383;29;20484;-79
2020/12/10 05:08:02;;;;;;;32.47;10.97;;;3.70;99.90;;;;;;4929857;29;20441;-79
2020/12/10 05:10:28;;;;;;;27.17;11.80;;;3.70;99.90;;;;;;5009965;28;20400;-79
2020/12/10 05:13:13;;;;;;;26.00;13.10;;;3.70;99.90;;;;;;5006032;28;20435;-79
2020/12/10 05:15:42;;;;;;;22.53;11.67;;;3.80;99.90;;;;;;5005418;28;20471;-79
2020/12/10 05:18:11;;;;;;;27.43;12.13;;;3.90;99.90;;;;;;4986104;28;20388;-79
2020/12/10 05:20:41;;;;;;;35.50;15.90;;;3.90;99.90;;;;;;4966223;28;20430;-79
2020/12/10 05:23:08;;;;;;;25.90;11.53;;;4.00;99.90;;;;;;4966347;28;20418;-79
2020/12/10 05:25:49;;;;;;;36.73;12.73;;;3.90;99.90;;;;;;4947182;29;20432;-79
2020/12/10 05:28:18;;;;;;;33.63;14.43;;;3.90;99.90;;;;;;4927979;29;20959;-79
2020/12/10 05:31:00;;;;;;;26.60;12.10;;;3.90;99.90;;;;;;4928817;29;20412;-80
2020/12/10 05:33:26;;;;;;;31.67;13.47;;;3.80;99.90;;;;;;4929488;29;20498;-80
2020/12/10 05:36:10;;;;;;;23.23;15.40;;;3.90;99.90;;;;;;4929244;29;20378;-79
2020/12/10 05:39:02;;;;;;;32.60;13.87;;;3.80;99.90;;;;;;4935999;29;20464;-79
2020/12/10 05:41:34;;;;;;;27.27;11.70;;;3.70;99.90;;;;;;4928246;29;20404;-79
2020/12/10 05:44:13;;;;;;;37.20;14.03;;;3.80;99.90;;;;;;4926747;29;20949;-79
2020/12/10 05:46:43;;;;;;;29.63;13.00;;;3.80;99.90;;;;;;4961557;29;20401;-79
2020/12/10 05:49:14;;;;;;;31.77;13.10;;;3.50;99.90;;;;;;4977283;28;20478;-79
2020/12/10 05:51:43;;;;;;;22.63;12.57;;;3.70;99.90;;;;;;4961425;29;20401;-79
2020/12/10 05:54:13;;;;;;;27.97;13.03;;;3.70;99.90;;;;;;4979888;28;20376;-79
2020/12/10 05:56:59;;;;;;;27.50;11.50;;;3.60;99.90;;;;;;4974918;28;20414;-79
2020/12/10 05:59:29;;;;;;;21.70;10.47;;;3.50;99.90;;;;;;4987895;28;20431;-79
2020/12/10 06:02:06;;;;;;;29.93;12.63;;;3.70;99.90;;;;;;4987712;28;20397;-79
2020/12/10 06:04:33;;;;;;;30.43;15.50;;;3.60;99.90;;;;;;5026149;28;20762;-79
2020/12/10 06:07:01;;;;;;;32.00;12.60;;;3.30;99.90;;;;;;5018810;28;20504;-79
2020/12/10 06:09:29;;;;;;;25.50;12.73;;;3.30;99.90;;;;;;4958696;29;20373;-79
2020/12/10 06:12:04;;;;;;;26.97;11.87;;;3.50;99.90;;;;;;4917365;29;20425;-79
2020/12/10 06:14:32;;;;;;;24.63;11.13;;;3.60;99.90;;;;;;4911378;29;20424;-79
2020/12/10 06:17:12;;;;;;;32.87;10.97;;;3.70;99.90;;;;;;4905331;29;20891;-79
2020/12/10 06:19:44;;;;;;;31.27;13.20;;;3.70;99.90;;;;;;4855144;29;20485;-79
2020/12/10 06:22:36;;;;;;;43.80;12.60;;;3.80;99.90;;;;;;4872985;29;20393;-79
2020/12/10 06:25:29;;;;;;;30.27;14.37;;;3.50;99.90;;;;;;4843206;29;20426;-79
2020/12/10 06:28:18;;;;;;;30.37;14.67;;;3.30;99.90;;;;;;4840778;29;20453;-79
2020/12/10 06:31:06;;;;;;;28.13;13.53;;;3.50;99.90;;;;;;4829180;29;20400;-80
2020/12/10 06:33:37;;;;;;;29.63;11.60;;;3.60;99.90;;;;;;4828388;29;20414;-80
2020/12/10 06:36:28;;;;;;;24.70;12.00;;;3.70;99.90;;;;;;4830774;29;20429;-79
2020/12/10 06:39:22;;;;;;;20.03;11.20;;;3.80;99.90;;;;;;4819623;29;20425;-79
2020/12/10 06:42:05;;;;;;;29.67;11.53;;;4.00;99.90;;;;;;4787832;29;20431;-79
2020/12/10 06:44:33;;;;;;;25.43;11.37;;;3.90;99.90;;;;;;4834797;29;20493;-79
2020/12/10 06:46:59;;;;;;;28.33;14.67;;;4.00;99.90;;;;;;4780953;29;20647;-79
2020/12/10 06:49:33;;;;;;;27.93;12.03;;;4.10;99.90;;;;;;4781896;29;20423;-79
2020/12/10 06:52:18;;;;;;;28.50;14.37;;;4.00;99.90;;;;;;4814388;29;20442;-79
2020/12/10 06:55:15;;;;;;;15.00;10.13;;;4.00;99.90;;;;;;4846066;29;20398;-79
2020/12/10 06:58:03;;;;;;;25.70;13.73;;;4.00;99.90;;;;;;4854336;29;20905;-79
2020/12/10 07:00:40;;;;;;;22.03;11.57;;;4.10;99.90;;;;;;4832985;29;20441;-79
2020/12/10 07:03:13;;;;;;;28.60;11.50;;;4.10;99.90;;;;;;4868137;29;20443;-79
2020/12/10 07:05:40;;;;;;;39.30;15.83;;;4.20;99.90;;;;;;4858223;29;20420;-79
2020/12/10 07:08:09;;;;;;;37.70;14.23;;;4.20;99.90;;;;;;4872235;29;20485;-79
2020/12/10 07:10:44;;;;;;;27.13;12.00;;;4.10;99.90;;;;;;4849375;29;20507;-79
2020/12/10 07:13:12;;;;;;;31.50;12.50;;;4.10;99.90;;;;;;4847124;29;20451;-79
2020/12/10 07:15:39;;;;;;;24.23;10.73;;;4.10;99.90;;;;;;4837700;29;20430;-79
2020/12/10 07:18:06;;;;;;;22.43;12.47;;;3.90;99.90;;;;;;4871453;29;20454;-79
2020/12/10 07:20:34;;;;;;;21.43;11.53;;;4.00;99.90;;;;;;4858275;29;20464;-79
2020/12/10 07:23:00;;;;;;;30.57;14.20;;;4.10;99.90;;;;;;4857210;29;20458;-79
2020/12/10 07:25:26;;;;;;;30.77;12.03;;;4.10;99.90;;;;;;4892052;29;20436;-79
2020/12/10 07:27:55;;;;;;;26.70;12.73;;;4.20;99.90;;;;;;4904335;29;20972;-79
2020/12/10 07:30:24;;;;;;;27.27;11.93;;;4.30;99.90;;;;;;4926738;29;20461;-80
2020/12/10 07:32:52;;;;;;;24.73;12.00;;;4.30;99.90;;;;;;4982426;28;20468;-79
2020/12/10 07:35:41;;;;;;;28.17;12.60;;;4.30;99.90;;;;;;4982195;28;20446;-78
2020/12/10 07:38:10;;;;;;;26.50;16.17;;;4.20;99.90;;;;;;4977106;28;20533;-78
2020/12/10 07:40:36;;;;;;;35.37;12.83;;;4.20;99.90;;;;;;4949768;28;20852;-79
2020/12/10 07:43:06;;;;;;;23.00;12.60;;;4.30;99.90;;;;;;4974077;28;20425;-78
2020/12/10 07:45:38;;;;;;;36.40;14.57;;;4.30;99.90;;;;;;4992626;28;20909;-79
2020/12/10 07:48:08;;;;;;;23.83;13.20;;;4.40;99.90;;;;;;4975759;28;20461;-79
2020/12/10 07:50:36;;;;;;;31.27;13.83;;;4.40;99.90;;;;;;4920629;29;20443;-79
2020/12/10 07:53:07;;;;;;;28.17;11.23;;;4.20;99.90;;;;;;4918834;29;20537;-80
2020/12/10 07:55:54;;;;;;;29.83;11.47;;;3.70;99.90;;;;;;4894851;29;20631;-80
2020/12/10 07:58:55;;;;;;;30.47;13.50;;;3.40;99.90;;;;;;4916374;29;20449;-81
2020/12/10 08:01:26;;;;;;;27.70;14.17;;;3.40;99.90;;;;;;4910063;29;20455;-79
2020/12/10 08:04:03;;;;;;;32.80;14.33;;;3.10;99.90;;;;;;4922907;29;20562;-79
2020/12/10 08:06:31;;;;;;;31.13;14.00;;;3.10;99.90;;;;;;4902537;29;20468;-79
2020/12/10 08:09:00;;;;;;;24.93;14.90;;;3.00;99.90;;;;;;4918303;29;20454;-80
2020/12/10 08:11:27;;;;;;;31.67;13.40;;;2.90;99.90;;;;;;4918998;29;20529;-80
2020/12/10 08:13:57;;;;;;;33.47;14.27;;;3.00;99.90;;;;;;4876579;29;20431;-82
2020/12/10 08:16:44;;;;;;;47.47;14.17;;;2.90;99.90;;;;;;4857897;29;20471;-81
2020/12/10 08:19:26;;;;;;;37.60;13.43;;;2.90;99.90;;;;;;4849176;29;20430;-82
2020/12/10 08:21:53;;;;;;;33.27;14.13;;;3.00;99.90;;;;;;4858292;29;20472;-81
2020/12/10 08:24:44;;;;;;;32.70;12.30;;;2.80;99.90;;;;;;4870145;29;20915;-81
2020/12/10 08:27:21;;;;;;;34.87;16.40;;;2.80;99.90;;;;;;4871799;29;20478;-80
2020/12/10 08:30:10;;;;;;;35.50;14.83;;;2.70;99.90;;;;;;4883401;29;20431;-80
2020/12/10 08:32:57;;;;;;;33.43;11.93;;;2.60;99.90;;;;;;4900893;29;20414;-80
2020/12/10 08:35:25;;;;;;;25.63;11.40;;;2.70;99.90;;;;;;4882947;29;20431;-79
2020/12/10 08:37:51;;;;;;;24.93;11.27;;;2.80;99.90;;;;;;4856732;29;20482;-81
2020/12/10 08:40:27;;;;;;;40.13;14.30;;;2.80;99.90;;;;;;4856658;29;20474;-81
2020/12/10 08:42:54;;;;;;;33.43;12.63;;;2.70;99.90;;;;;;4875922;29;21054;-81
2020/12/10 08:45:43;;;;;;;29.93;11.80;;;2.70;99.90;;;;;;4958763;28;20426;-82
2020/12/10 08:48:09;;;;;;;20.60;11.07;;;2.80;99.90;;;;;;4982085;28;20463;-81
2020/12/10 08:50:35;;;;;;;41.20;14.27;;;2.80;99.90;;;;;;4994658;28;20437;-81
2020/12/10 08:53:05;;;;;;;33.90;13.77;;;2.90;99.90;;;;;;4974742;28;20432;-81
2020/12/10 08:55:50;;;;;;;30.63;15.90;;;2.90;99.90;;;;;;4990288;28;20400;-82
2020/12/10 08:58:19;;;;;;;28.87;14.00;;;3.10;99.90;;;;;;4977919;28;20817;-82
2020/12/10 09:00:47;;;;;;;29.10;14.10;;;3.10;99.90;;;;;;4974416;28;20447;-82
2020/12/10 09:03:14;;;;;;;29.27;14.07;;;3.10;99.90;;;;;;4998173;28;20413;-81
2020/12/10 09:05:41;;;;;;;44.73;15.30;;;3.00;99.90;;;;;;5005597;28;20445;-80
2020/12/10 09:08:07;;;;;;;31.33;17.50;;;3.10;99.90;;;;;;5005987;28;20540;-82
2020/12/10 09:10:33;;;;;;;28.87;14.53;;;3.00;99.90;;;;;;5010568;28;20408;-81
2020/12/10 09:13:00;;;;;;;33.00;15.40;;;3.10;99.90;;;;;;5018635;28;20847;-80
2020/12/10 09:15:27;;;;;;;46.70;14.87;;;3.20;99.90;;;;;;5018016;28;20188;-83
2020/12/10 09:17:55;;;;;;;38.37;17.40;;;3.10;99.90;;;;;;5037564;28;20446;-81
2020/12/10 09:20:24;;;;;;;37.57;15.17;;;2.90;99.90;;;;;;5007551;28;20470;-80
2020/12/10 09:22:50;;;;;;;38.50;15.93;;;2.90;99.90;;;;;;5043925;28;20440;-82
2020/12/10 09:25:16;;;;;;;34.97;14.70;;;2.90;99.90;;;;;;5037824;28;20443;-80
2020/12/10 09:27:41;;;;;;;38.17;17.87;;;2.90;99.90;;;;;;5043557;28;20535;-82
2020/12/10 09:30:09;;;;;;;24.13;12.13;;;3.00;99.90;;;;;;5039376;28;20817;-80
2020/12/10 09:32:36;;;;;;;31.67;16.57;;;2.90;99.90;;;;;;5022046;28;20191;-83
2020/12/10 09:35:06;;;;;;;26.27;12.33;;;3.00;99.90;;;;;;5020713;28;20901;-82
2020/12/10 09:37:34;;;;;;;40.37;15.37;;;2.90;99.90;;;;;;5019551;28;20569;-82
2020/12/10 09:40:01;;;;;;;33.20;17.58;;;2.80;99.90;;;;;;4987312;28;20422;-82
2020/12/10 09:42:31;;;;;;;35.10;16.00;;;2.80;99.90;;;;;;5019879;28;20194;-81
2020/12/10 09:44:57;;;;;;;42.00;15.90;;;2.90;99.90;;;;;;4988273;28;20425;-82
2020/12/10 09:47:23;;;;;;;46.23;15.90;;;3.00;99.90;;;;;;5004169;28;20530;-84
2020/12/10 09:50:01;;;;;;;38.03;18.07;;;3.20;99.90;;;;;;5029419;28;20543;-84
2020/12/10 09:52:34;;;;;;;36.13;13.17;;;3.10;99.90;;;;;;4971786;28;20569;-80
2020/12/10 09:55:08;;;;;;;33.60;17.13;;;3.20;99.90;;;;;;4954594;29;20509;-80
2020/12/10 09:57:34;;;;;;;29.27;16.50;;;3.20;99.90;;;;;;4899445;29;20420;-81
2020/12/10 10:00:05;;;;;;;28.37;13.23;;;3.20;99.90;;;;;;4924856;29;20427;-81
2020/12/10 10:02:31;;;;;;;31.10;16.43;;;3.30;99.90;;;;;;4909256;29;20463;-81
2020/12/10 10:04:57;;;;;;;35.87;14.70;;;3.40;99.90;;;;;;4914108;29;20412;-80
2020/12/10 10:07:26;;;;;;;26.17;12.47;;;3.50;99.90;;;;;;4909064;29;20316;-83
2020/12/10 10:09:52;;;;;;;31.33;13.60;;;3.30;99.90;;;;;;4907241;29;20465;-80
2020/12/10 10:12:19;;;;;;;25.23;14.90;;;3.60;99.90;;;;;;4908537;29;20463;-82
2020/12/10 10:14:45;;;;;;;42.10;17.43;;;3.70;99.90;;;;;;4900456;29;20555;-82
2020/12/10 10:17:14;;;;;;;32.17;16.07;;;3.60;99.90;;;;;;4925828;29;20511;-81
2020/12/10 10:19:39;;;;;;;37.53;16.70;;;3.60;99.90;;;;;;4940933;29;20446;-81
2020/12/10 10:22:05;;;;;;;41.03;14.03;;;3.40;99.90;;;;;;4955247;29;20455;-81
2020/12/10 10:24:32;;;;;;;34.63;16.40;;;3.20;99.90;;;;;;4956786;28;20202;-82
2020/12/10 10:26:59;;;;;;;35.50;15.80;;;3.20;99.90;;;;;;4956187;29;20446;-81
2020/12/10 10:29:26;;;;;;;43.83;16.27;;;3.10;99.90;;;;;;4946803;28;20416;-83
2020/12/10 10:31:52;;;;;;;33.40;16.93;;;3.00;99.90;;;;;;4967143;28;20453;-81
2020/12/10 10:34:19;;;;;;;36.07;15.87;;;3.10;99.90;;;;;;4996867;28;20403;-82
2020/12/10 10:36:47;;;;;;;31.87;15.33;;;3.30;99.90;;;;;;4968741;28;20400;-81
2020/12/10 10:39:13;;;;;;;37.23;14.57;;;3.20;99.90;;;;;;5010576;28;20578;-82
2020/12/10 10:41:41;;;;;;;24.47;13.27;;;3.10;99.90;;;;;;5000719;28;20438;-83
2020/12/10 10:44:07;;;;;;;36.37;17.47;;;3.30;99.90;;;;;;4998797;28;20182;-80
2020/12/10 10:46:33;;;;;;;45.13;18.57;;;3.30;99.90;;;;;;5032217;28;20529;-82
2020/12/10 10:48:59;;;;;;;45.17;15.57;;;3.10;99.90;;;;;;5030068;28;20208;-80
2020/12/10 10:51:25;;;;;;;53.03;18.90;;;3.40;99.90;;;;;;5015951;28;20450;-81
2020/12/10 10:53:51;;;;;;;40.87;15.40;;;3.50;99.90;;;;;;5038801;28;20176;-82
2020/12/10 10:56:23;;;;;;;42.63;18.60;;;3.50;99.90;;;;;;5035761;28;20942;-81
2020/12/10 10:58:48;;;;;;;39.23;17.57;;;3.40;99.90;;;;;;5034469;28;20200;-80
2020/12/10 11:01:15;;;;;;;37.30;15.77;;;3.00;99.90;;;;;;5038223;28;20519;-82
2020/12/10 11:03:42;;;;;;;31.77;18.50;;;3.40;99.90;;;;;;4961602;28;20508;-83
2020/12/10 11:06:16;;;;;;;38.13;14.97;;;3.70;99.90;;;;;;4969544;28;20487;-81
2020/12/10 11:08:42;;;;;;;37.13;15.87;;;3.60;99.90;;;;;;4973065;28;20452;-83
2020/12/10 11:11:08;;;;;;;34.63;18.30;;;3.90;99.90;;;;;;4973960;28;20543;-82
2020/12/10 11:13:34;;;;;;;43.67;19.27;;;4.00;99.90;;;;;;4973283;28;20993;-83
2020/12/10 11:16:00;;;;;;;31.90;14.63;;;4.10;99.90;;;;;;4973089;28;20656;-83
2020/12/10 11:18:26;;;;;;;36.23;15.50;;;3.60;99.90;;;;;;4985067;28;20555;-81
2020/12/10 11:20:52;;;;;;;43.10;17.23;;;3.70;99.90;;;;;;4995415;28;20209;-84
2020/12/10 11:23:19;;;;;;;47.17;17.10;;;4.00;99.90;;;;;;4975181;28;20197;-83
2020/12/10 11:25:46;;;;;;;39.37;18.53;;;4.00;99.90;;;;;;4976598;28;20190;-82
2020/12/10 11:28:11;;;;;;;47.73;16.17;;;3.90;99.90;;;;;;4990003;28;20461;-83
2020/12/10 11:30:37;;;;;;;54.87;18.93;;;4.10;99.90;;;;;;4978417;28;20413;-82
2020/12/10 11:33:03;;;;;;;42.50;18.13;;;4.10;99.90;;;;;;4978736;28;20186;-83
2020/12/10 11:35:29;;;;;;;31.90;17.00;;;4.10;99.90;;;;;;5029986;28;20205;-81
2020/12/10 11:37:55;;;;;;;40.00;17.67;;;4.10;99.90;;;;;;5036510;28;20228;-82
2020/12/10 11:40:23;;;;;;;41.63;15.70;;;4.20;99.90;;;;;;5037091;28;20180;-81
2020/12/10 11:42:49;;;;;;;30.10;17.40;;;4.30;99.90;;;;;;5041996;28;20439;-82
2020/12/10 11:45:16;;;;;;;41.33;17.83;;;4.40;99.90;;;;;;5044545;28;20421;-83
2020/12/10 11:47:42;;;;;;;35.67;14.23;;;4.40;99.90;;;;;;5020252;28;20505;-82
2020/12/10 11:50:08;;;;;;;32.63;14.60;;;4.50;99.90;;;;;;5042158;28;20435;-79
2020/12/10 11:52:33;;;;;;;30.77;15.77;;;4.40;99.90;;;;;;5037373;28;20176;-80
2020/12/10 11:55:02;;;;;;;48.10;17.10;;;4.50;99.90;;;;;;5025267;28;20195;-80
2020/12/10 11:57:28;;;;;;;29.07;15.10;;;4.40;99.90;;;;;;5008247;28;20280;-83
2020/12/10 11:59:54;;;;;;;30.23;16.07;;;4.00;99.90;;;;;;5045760;28;20439;-83
2020/12/10 12:02:21;;;;;;;42.83;14.77;;;4.10;99.90;;;;;;5015102;28;20188;-83
2020/12/10 12:04:47;;;;;;;25.27;11.70;;;4.20;99.90;;;;;;4991752;28;20272;-82
2020/12/10 12:07:15;;;;;;;43.03;20.17;;;4.20;99.90;;;;;;5011905;28;20537;-83
2020/12/10 12:09:49;;;;;;;27.33;11.87;;;4.30;99.90;;;;;;5034960;28;20184;-80
2020/12/10 12:12:18;;;;;;;23.97;14.13;;;4.40;99.90;;;;;;5035751;28;20405;-81
2020/12/10 12:14:44;;;;;;;28.63;13.97;;;4.50;99.90;;;;;;5039426;28;20439;-82
2020/12/10 12:17:13;;;;;;;34.63;14.73;;;4.40;99.90;;;;;;5003268;28;20419;-82
2020/12/10 12:19:44;;;;;;;30.30;14.33;;;4.30;99.90;;;;;;4996038;28;20430;-83
2020/12/10 12:22:09;;;;;;;26.00;14.57;;;4.40;99.90;;;;;;5011988;28;20414;-84
2020/12/10 12:24:37;;;;;;;32.17;14.57;;;4.50;99.90;;;;;;4975895;28;20830;-81
2020/12/10 12:27:06;;;;;;;31.50;12.27;;;4.40;99.90;;;;;;5009620;28;20444;-83
2020/12/10 12:29:35;;;;;;;39.00;15.47;;;4.50;99.90;;;;;;4990958;28;20512;-83
2020/12/10 12:32:06;;;;;;;23.77;11.30;;;4.40;99.90;;;;;;5022381;28;20469;-83
2020/12/10 12:34:36;;;;;;;24.80;12.80;;;3.80;99.90;;;;;;5028654;28;20410;-83
2020/12/10 12:37:02;;;;;;;27.27;13.57;;;3.80;99.90;;;;;;5026841;28;20430;-82
2020/12/10 12:39:29;;;;;;;32.93;15.50;;;4.10;99.90;;;;;;5031415;28;20478;-82
2020/12/10 12:41:55;;;;;;;29.30;12.00;;;4.20;99.90;;;;;;5020219;28;20411;-80
2020/12/10 12:44:28;;;;;;;24.93;11.10;;;4.40;99.90;;;;;;4997510;28;20473;-79
2020/12/10 12:46:59;;;;;;;28.17;12.17;;;4.40;99.90;;;;;;4976021;28;20190;-77
2020/12/10 12:49:25;;;;;;;26.03;11.47;;;4.50;99.90;;;;;;4984905;28;20475;-81
2020/12/10 12:51:52;;;;;;;27.63;11.20;;;4.40;99.90;;;;;;4958034;28;20452;-80